sensor_id;sensor_type;location;lat;lon;timestamp;P1;durP1;ratioP1;P2;durP2;ratioP2
21339;SDS011;10828;47.064;15.422;2022-11-15T00:01:47;60.80;;;18.70;;
21339;SDS011;10828;47.064;15.422;2022-11-15T00:04:21;70.27;;;20.10;;
21339;SDS011;10828;47.064;15.422;2022-11-15T00:09:18;70.00;;;19.67;;
21339;SDS011;10828;47.064;15.422;2022-11-15T00:11:47;61.07;;;19.57;;
21339;SDS011;10828;47.064;15.422;2022-11-15T00:14:13;75.30;;;20.17;;
21339;SDS011;10828;47.064;15.422;2022-11-15T00:19:11;65.70;;;18.47;;
21339;SDS011;10828;47.064;15.422;2022-11-15T00:21:46;73.87;;;21.10;;
21339;SDS011;10828;47.064;15.422;2022-11-15T00:24:15;71.40;;;21.93;;
21339;SDS011;10828;47.064;15.422;2022-11-15T00:26:42;69.13;;;21.37;;
21339;SDS011;10828;47.064;15.422;2022-11-15T00:29:10;59.90;;;18.93;;
21339;SDS011;10828;47.064;15.422;2022-11-15T00:31:38;66.37;;;19.67;;
21339;SDS011;10828;47.064;15.422;2022-11-15T00:34:06;62.20;;;18.57;;
21339;SDS011;10828;47.064;15.422;2022-11-15T00:36:34;63.07;;;19.10;;
21339;SDS011;10828;47.064;15.422;2022-11-15T00:39:05;68.97;;;19.87;;
21339;SDS011;10828;47.064;15.422;2022-11-15T00:41:37;64.70;;;19.37;;
21339;SDS011;10828;47.064;15.422;2022-11-15T00:44:06;61.20;;;18.70;;
21339;SDS011;10828;47.064;15.422;2022-11-15T00:46:34;64.50;;;18.93;;
21339;SDS011;10828;47.064;15.422;2022-11-15T00:49:01;59.10;;;19.30;;
21339;SDS011;10828;47.064;15.422;2022-11-15T00:51:30;75.23;;;20.00;;
21339;SDS011;10828;47.064;15.422;2022-11-15T00:53:56;72.43;;;19.33;;
21339;SDS011;10828;47.064;15.422;2022-11-15T00:56:24;68.87;;;18.20;;
21339;SDS011;10828;47.064;15.422;2022-11-15T00:58:57;74.63;;;21.23;;
21339;SDS011;10828;47.064;15.422;2022-11-15T01:01:25;70.07;;;18.43;;
21339;SDS011;10828;47.064;15.422;2022-11-15T01:03:53;70.47;;;18.70;;
21339;SDS011;10828;47.064;15.422;2022-11-15T01:06:21;73.30;;;19.47;;
21339;SDS011;10828;47.064;15.422;2022-11-15T01:08:50;74.30;;;18.90;;
21339;SDS011;10828;47.064;15.422;2022-11-15T01:11:17;66.93;;;20.40;;
21339;SDS011;10828;47.064;15.422;2022-11-15T01:13:45;69.27;;;21.13;;
21339;SDS011;10828;47.064;15.422;2022-11-15T01:16:16;65.30;;;17.00;;
21339;SDS011;10828;47.064;15.422;2022-11-15T01:18:45;75.47;;;20.40;;
21339;SDS011;10828;47.064;15.422;2022-11-15T01:21:20;63.83;;;18.17;;
21339;SDS011;10828;47.064;15.422;2022-11-15T01:23:52;75.10;;;21.37;;
21339;SDS011;10828;47.064;15.422;2022-11-15T01:26:20;78.03;;;19.73;;
21339;SDS011;10828;47.064;15.422;2022-11-15T01:28:48;64.07;;;19.23;;
21339;SDS011;10828;47.064;15.422;2022-11-15T01:31:23;75.43;;;20.00;;
21339;SDS011;10828;47.064;15.422;2022-11-15T01:33:50;77.33;;;22.40;;
21339;SDS011;10828;47.064;15.422;2022-11-15T01:36:20;68.10;;;19.23;;
21339;SDS011;10828;47.064;15.422;2022-11-15T01:38:57;71.57;;;20.10;;
21339;SDS011;10828;47.064;15.422;2022-11-15T01:41:30;90.73;;;20.17;;
21339;SDS011;10828;47.064;15.422;2022-11-15T01:46:46;80.10;;;21.63;;
21339;SDS011;10828;47.064;15.422;2022-11-15T01:49:17;81.00;;;19.93;;
21339;SDS011;10828;47.064;15.422;2022-11-15T01:51:50;82.73;;;18.67;;
21339;SDS011;10828;47.064;15.422;2022-11-15T01:54:17;85.10;;;21.20;;
21339;SDS011;10828;47.064;15.422;2022-11-15T01:56:52;67.90;;;18.47;;
21339;SDS011;10828;47.064;15.422;2022-11-15T01:59:20;78.20;;;19.30;;
21339;SDS011;10828;47.064;15.422;2022-11-15T02:01:51;80.87;;;21.03;;
21339;SDS011;10828;47.064;15.422;2022-11-15T02:04:20;86.30;;;19.70;;
21339;SDS011;10828;47.064;15.422;2022-11-15T02:06:52;101.50;;;25.17;;
21339;SDS011;10828;47.064;15.422;2022-11-15T02:09:25;87.03;;;19.60;;
21339;SDS011;10828;47.064;15.422;2022-11-15T02:11:53;73.80;;;19.63;;
21339;SDS011;10828;47.064;15.422;2022-11-15T02:14:22;73.33;;;20.43;;
21339;SDS011;10828;47.064;15.422;2022-11-15T02:42:02;60.00;;;20.50;;
21339;SDS011;10828;47.064;15.422;2022-11-15T02:44:37;67.93;;;19.13;;
21339;SDS011;10828;47.064;15.422;2022-11-15T02:47:08;64.63;;;18.57;;
21339;SDS011;10828;47.064;15.422;2022-11-15T02:52:17;64.47;;;20.23;;
21339;SDS011;10828;47.064;15.422;2022-11-15T02:54:56;69.50;;;21.10;;
21339;SDS011;10828;47.064;15.422;2022-11-15T02:57:45;83.63;;;21.20;;
21339;SDS011;10828;47.064;15.422;2022-11-15T03:00:15;78.63;;;22.13;;
21339;SDS011;10828;47.064;15.422;2022-11-15T03:16:19;82.20;;;21.70;;
21339;SDS011;10828;47.064;15.422;2022-11-15T03:18:51;71.83;;;21.87;;
21339;SDS011;10828;47.064;15.422;2022-11-15T03:23:50;66.43;;;19.87;;
21339;SDS011;10828;47.064;15.422;2022-11-15T03:26:19;74.73;;;21.73;;
21339;SDS011;10828;47.064;15.422;2022-11-15T03:28:52;84.13;;;19.50;;
21339;SDS011;10828;47.064;15.422;2022-11-15T03:31:20;66.67;;;19.27;;
21339;SDS011;10828;47.064;15.422;2022-11-15T03:34:09;78.13;;;20.87;;
21339;SDS011;10828;47.064;15.422;2022-11-15T03:36:40;73.10;;;19.97;;
21339;SDS011;10828;47.064;15.422;2022-11-15T03:39:08;77.80;;;20.50;;
21339;SDS011;10828;47.064;15.422;2022-11-15T03:41:43;74.37;;;19.37;;
21339;SDS011;10828;47.064;15.422;2022-11-15T03:44:28;60.63;;;18.47;;
21339;SDS011;10828;47.064;15.422;2022-11-15T03:47:00;61.07;;;18.87;;
21339;SDS011;10828;47.064;15.422;2022-11-15T03:49:32;61.30;;;18.43;;
21339;SDS011;10828;47.064;15.422;2022-11-15T03:52:01;55.73;;;17.93;;
21339;SDS011;10828;47.064;15.422;2022-11-15T03:54:31;54.20;;;15.67;;
21339;SDS011;10828;47.064;15.422;2022-11-15T03:56:59;66.00;;;17.33;;
21339;SDS011;10828;47.064;15.422;2022-11-15T03:59:26;65.13;;;17.33;;
21339;SDS011;10828;47.064;15.422;2022-11-15T04:01:55;63.57;;;18.67;;
21339;SDS011;10828;47.064;15.422;2022-11-15T04:04:27;70.53;;;19.37;;
21339;SDS011;10828;47.064;15.422;2022-11-15T04:06:55;57.03;;;15.97;;
21339;SDS011;10828;47.064;15.422;2022-11-15T04:09:22;63.20;;;18.37;;
21339;SDS011;10828;47.064;15.422;2022-11-15T04:11:52;66.37;;;18.20;;
21339;SDS011;10828;47.064;15.422;2022-11-15T04:14:20;60.23;;;18.87;;
21339;SDS011;10828;47.064;15.422;2022-11-15T04:16:49;50.07;;;15.23;;
21339;SDS011;10828;47.064;15.422;2022-11-15T04:19:16;59.40;;;18.13;;
21339;SDS011;10828;47.064;15.422;2022-11-15T04:22:09;53.17;;;16.93;;
21339;SDS011;10828;47.064;15.422;2022-11-15T04:24:56;72.67;;;17.53;;
21339;SDS011;10828;47.064;15.422;2022-11-15T04:27:27;55.83;;;17.53;;
21339;SDS011;10828;47.064;15.422;2022-11-15T04:29:55;56.67;;;17.40;;
21339;SDS011;10828;47.064;15.422;2022-11-15T04:32:24;57.67;;;17.60;;
21339;SDS011;10828;47.064;15.422;2022-11-15T04:34:52;70.30;;;17.00;;
21339;SDS011;10828;47.064;15.422;2022-11-15T04:37:21;58.60;;;17.33;;
21339;SDS011;10828;47.064;15.422;2022-11-15T04:39:49;53.53;;;15.70;;
21339;SDS011;10828;47.064;15.422;2022-11-15T04:42:17;54.90;;;14.80;;
21339;SDS011;10828;47.064;15.422;2022-11-15T04:44:45;51.13;;;16.03;;
21339;SDS011;10828;47.064;15.422;2022-11-15T04:49:43;56.47;;;16.87;;
21339;SDS011;10828;47.064;15.422;2022-11-15T04:52:10;52.33;;;18.23;;
21339;SDS011;10828;47.064;15.422;2022-11-15T04:54:36;55.17;;;16.57;;
21339;SDS011;10828;47.064;15.422;2022-11-15T04:57:02;61.57;;;16.20;;
21339;SDS011;10828;47.064;15.422;2022-11-15T04:59:30;51.70;;;16.27;;
21339;SDS011;10828;47.064;15.422;2022-11-15T05:01:59;58.70;;;16.97;;
21339;SDS011;10828;47.064;15.422;2022-11-15T05:04:27;67.77;;;17.27;;
21339;SDS011;10828;47.064;15.422;2022-11-15T05:06:56;58.20;;;16.53;;
21339;SDS011;10828;47.064;15.422;2022-11-15T05:09:26;62.53;;;17.97;;
21339;SDS011;10828;47.064;15.422;2022-11-15T05:11:59;66.63;;;19.70;;
21339;SDS011;10828;47.064;15.422;2022-11-15T05:14:33;68.03;;;17.60;;
21339;SDS011;10828;47.064;15.422;2022-11-15T05:17:01;57.17;;;16.90;;
21339;SDS011;10828;47.064;15.422;2022-11-15T05:19:29;65.83;;;17.73;;
21339;SDS011;10828;47.064;15.422;2022-11-15T05:21:57;65.50;;;18.87;;
21339;SDS011;10828;47.064;15.422;2022-11-15T05:24:25;68.77;;;18.93;;
21339;SDS011;10828;47.064;15.422;2022-11-15T05:26:54;71.83;;;19.57;;
21339;SDS011;10828;47.064;15.422;2022-11-15T05:29:21;83.07;;;18.23;;
21339;SDS011;10828;47.064;15.422;2022-11-15T05:31:53;66.27;;;18.33;;
21339;SDS011;10828;47.064;15.422;2022-11-15T05:34:20;72.37;;;19.53;;
21339;SDS011;10828;47.064;15.422;2022-11-15T05:36:53;65.23;;;19.17;;
21339;SDS011;10828;47.064;15.422;2022-11-15T05:39:21;64.40;;;19.20;;
21339;SDS011;10828;47.064;15.422;2022-11-15T05:41:51;66.20;;;18.13;;
21339;SDS011;10828;47.064;15.422;2022-11-15T05:44:20;81.97;;;20.37;;
21339;SDS011;10828;47.064;15.422;2022-11-15T05:46:49;72.03;;;18.73;;
21339;SDS011;10828;47.064;15.422;2022-11-15T05:49:20;66.03;;;17.27;;
21339;SDS011;10828;47.064;15.422;2022-11-15T05:51:49;63.97;;;18.03;;
21339;SDS011;10828;47.064;15.422;2022-11-15T05:54:16;66.70;;;19.70;;
21339;SDS011;10828;47.064;15.422;2022-11-15T05:56:44;74.00;;;18.93;;
21339;SDS011;10828;47.064;15.422;2022-11-15T05:59:19;75.13;;;19.83;;
21339;SDS011;10828;47.064;15.422;2022-11-15T06:01:52;61.67;;;17.23;;
21339;SDS011;10828;47.064;15.422;2022-11-15T06:04:19;74.10;;;18.80;;
21339;SDS011;10828;47.064;15.422;2022-11-15T06:06:48;82.93;;;21.03;;
21339;SDS011;10828;47.064;15.422;2022-11-15T06:09:15;70.53;;;20.27;;
21339;SDS011;10828;47.064;15.422;2022-11-15T06:11:49;85.50;;;19.77;;
21339;SDS011;10828;47.064;15.422;2022-11-15T06:14:21;73.23;;;19.83;;
21339;SDS011;10828;47.064;15.422;2022-11-15T06:16:52;80.17;;;19.33;;
21339;SDS011;10828;47.064;15.422;2022-11-15T06:19:20;71.90;;;18.47;;
21339;SDS011;10828;47.064;15.422;2022-11-15T06:21:48;58.67;;;16.40;;
21339;SDS011;10828;47.064;15.422;2022-11-15T06:24:16;67.00;;;17.30;;
21339;SDS011;10828;47.064;15.422;2022-11-15T06:26:44;69.20;;;17.97;;
21339;SDS011;10828;47.064;15.422;2022-11-15T06:31:54;49.67;;;12.93;;
21339;SDS011;10828;47.064;15.422;2022-11-15T06:34:21;59.10;;;18.17;;
21339;SDS011;10828;47.064;15.422;2022-11-15T06:36:55;57.80;;;15.67;;
21339;SDS011;10828;47.064;15.422;2022-11-15T06:41:57;50.00;;;15.30;;
21339;SDS011;10828;47.064;15.422;2022-11-15T06:44:25;62.77;;;16.93;;
21339;SDS011;10828;47.064;15.422;2022-11-15T06:46:53;59.00;;;16.70;;
21339;SDS011;10828;47.064;15.422;2022-11-15T06:49:25;53.63;;;16.20;;
21339;SDS011;10828;47.064;15.422;2022-11-15T06:51:58;57.93;;;15.53;;
21339;SDS011;10828;47.064;15.422;2022-11-15T06:54:24;41.60;;;13.63;;
21339;SDS011;10828;47.064;15.422;2022-11-15T06:56:53;54.47;;;15.37;;
21339;SDS011;10828;47.064;15.422;2022-11-15T06:59:21;50.07;;;15.13;;
21339;SDS011;10828;47.064;15.422;2022-11-15T07:01:50;61.00;;;16.70;;
21339;SDS011;10828;47.064;15.422;2022-11-15T07:04:17;52.00;;;14.90;;
21339;SDS011;10828;47.064;15.422;2022-11-15T07:06:46;57.10;;;15.87;;
21339;SDS011;10828;47.064;15.422;2022-11-15T07:11:55;64.13;;;16.87;;
21339;SDS011;10828;47.064;15.422;2022-11-15T07:14:23;79.23;;;16.63;;
21339;SDS011;10828;47.064;15.422;2022-11-15T07:16:51;82.43;;;18.00;;
21339;SDS011;10828;47.064;15.422;2022-11-15T07:21:49;71.47;;;16.50;;
21339;SDS011;10828;47.064;15.422;2022-11-15T07:24:17;62.73;;;16.67;;
21339;SDS011;10828;47.064;15.422;2022-11-15T07:26:45;72.63;;;18.33;;
21339;SDS011;10828;47.064;15.422;2022-11-15T07:29:13;77.23;;;18.70;;
21339;SDS011;10828;47.064;15.422;2022-11-15T07:31:49;66.17;;;18.37;;
21339;SDS011;10828;47.064;15.422;2022-11-15T07:34:25;71.23;;;18.33;;
21339;SDS011;10828;47.064;15.422;2022-11-15T07:37:00;61.77;;;17.13;;
21339;SDS011;10828;47.064;15.422;2022-11-15T07:39:28;76.53;;;18.90;;
21339;SDS011;10828;47.064;15.422;2022-11-15T07:41:57;65.07;;;16.43;;
21339;SDS011;10828;47.064;15.422;2022-11-15T07:44:48;72.37;;;18.13;;
21339;SDS011;10828;47.064;15.422;2022-11-15T07:47:15;62.70;;;16.50;;
21339;SDS011;10828;47.064;15.422;2022-11-15T07:49:42;64.07;;;18.30;;
21339;SDS011;10828;47.064;15.422;2022-11-15T07:52:09;76.40;;;17.40;;
21339;SDS011;10828;47.064;15.422;2022-11-15T07:54:35;62.57;;;16.70;;
21339;SDS011;10828;47.064;15.422;2022-11-15T07:57:07;71.57;;;17.97;;
21339;SDS011;10828;47.064;15.422;2022-11-15T07:59:35;62.63;;;17.50;;
21339;SDS011;10828;47.064;15.422;2022-11-15T08:02:03;59.73;;;17.83;;
21339;SDS011;10828;47.064;15.422;2022-11-15T08:04:31;57.30;;;16.27;;
21339;SDS011;10828;47.064;15.422;2022-11-15T08:06:58;53.87;;;16.77;;
21339;SDS011;10828;47.064;15.422;2022-11-15T08:09:27;57.40;;;16.03;;
21339;SDS011;10828;47.064;15.422;2022-11-15T08:11:55;55.60;;;15.87;;
21339;SDS011;10828;47.064;15.422;2022-11-15T08:14:23;58.97;;;16.57;;
21339;SDS011;10828;47.064;15.422;2022-11-15T08:16:51;56.40;;;15.50;;
21339;SDS011;10828;47.064;15.422;2022-11-15T08:21:49;54.33;;;15.87;;
21339;SDS011;10828;47.064;15.422;2022-11-15T08:24:17;47.13;;;14.43;;
21339;SDS011;10828;47.064;15.422;2022-11-15T08:26:44;51.20;;;14.83;;
21339;SDS011;10828;47.064;15.422;2022-11-15T08:29:11;54.33;;;14.63;;
21339;SDS011;10828;47.064;15.422;2022-11-15T08:31:39;57.33;;;15.47;;
21339;SDS011;10828;47.064;15.422;2022-11-15T08:36:35;45.37;;;13.73;;
21339;SDS011;10828;47.064;15.422;2022-11-15T08:39:02;47.93;;;14.87;;
21339;SDS011;10828;47.064;15.422;2022-11-15T08:41:33;50.40;;;14.37;;
21339;SDS011;10828;47.064;15.422;2022-11-15T08:44:02;50.50;;;14.27;;
21339;SDS011;10828;47.064;15.422;2022-11-15T08:46:29;43.63;;;13.87;;
21339;SDS011;10828;47.064;15.422;2022-11-15T08:49:04;38.40;;;14.13;;
21339;SDS011;10828;47.064;15.422;2022-11-15T08:51:36;46.50;;;14.00;;
21339;SDS011;10828;47.064;15.422;2022-11-15T08:54:02;48.80;;;16.57;;
21339;SDS011;10828;47.064;15.422;2022-11-15T08:56:29;65.17;;;17.70;;
21339;SDS011;10828;47.064;15.422;2022-11-15T08:58:56;55.13;;;15.90;;
21339;SDS011;10828;47.064;15.422;2022-11-15T09:01:23;66.47;;;16.37;;
21339;SDS011;10828;47.064;15.422;2022-11-15T09:03:50;68.97;;;18.47;;
21339;SDS011;10828;47.064;15.422;2022-11-15T09:06:21;68.70;;;17.37;;
21339;SDS011;10828;47.064;15.422;2022-11-15T09:08:57;65.17;;;17.33;;
21339;SDS011;10828;47.064;15.422;2022-11-15T09:11:25;61.37;;;15.67;;
21339;SDS011;10828;47.064;15.422;2022-11-15T09:13:53;66.23;;;16.87;;
21339;SDS011;10828;47.064;15.422;2022-11-15T09:16:20;67.23;;;17.00;;
21339;SDS011;10828;47.064;15.422;2022-11-15T09:18:48;65.87;;;16.20;;
21339;SDS011;10828;47.064;15.422;2022-11-15T09:21:14;64.33;;;18.87;;
21339;SDS011;10828;47.064;15.422;2022-11-15T09:23:41;67.03;;;17.87;;
21339;SDS011;10828;47.064;15.422;2022-11-15T09:26:09;63.27;;;17.90;;
21339;SDS011;10828;47.064;15.422;2022-11-15T09:28:43;68.87;;;18.73;;
21339;SDS011;10828;47.064;15.422;2022-11-15T09:31:11;57.87;;;17.73;;
21339;SDS011;10828;47.064;15.422;2022-11-15T09:33:38;59.23;;;18.93;;
21339;SDS011;10828;47.064;15.422;2022-11-15T09:36:07;64.03;;;17.80;;
21339;SDS011;10828;47.064;15.422;2022-11-15T09:38:42;69.17;;;18.57;;
21339;SDS011;10828;47.064;15.422;2022-11-15T09:44:06;56.33;;;16.87;;
21339;SDS011;10828;47.064;15.422;2022-11-15T09:51:53;67.93;;;17.10;;
21339;SDS011;10828;47.064;15.422;2022-11-15T10:07:40;62.17;;;17.30;;
21339;SDS011;10828;47.064;15.422;2022-11-15T10:12:48;64.00;;;19.50;;
21339;SDS011;10828;47.064;15.422;2022-11-15T10:15:16;67.33;;;17.77;;
21339;SDS011;10828;47.064;15.422;2022-11-15T10:20:57;72.83;;;18.47;;
21339;SDS011;10828;47.064;15.422;2022-11-15T10:23:23;66.83;;;19.50;;
21339;SDS011;10828;47.064;15.422;2022-11-15T10:25:59;68.33;;;17.90;;
21339;SDS011;10828;47.064;15.422;2022-11-15T10:28:29;68.10;;;19.70;;
21339;SDS011;10828;47.064;15.422;2022-11-15T10:31:10;62.83;;;18.20;;
21339;SDS011;10828;47.064;15.422;2022-11-15T10:33:48;68.47;;;18.13;;
21339;SDS011;10828;47.064;15.422;2022-11-15T10:36:16;64.33;;;18.03;;
21339;SDS011;10828;47.064;15.422;2022-11-15T10:38:58;61.93;;;18.40;;
21339;SDS011;10828;47.064;15.422;2022-11-15T10:46:30;63.43;;;17.23;;
21339;SDS011;10828;47.064;15.422;2022-11-15T10:49:21;74.13;;;18.63;;
21339;SDS011;10828;47.064;15.422;2022-11-15T10:51:51;62.03;;;15.10;;
21339;SDS011;10828;47.064;15.422;2022-11-15T10:54:21;56.60;;;15.10;;
21339;SDS011;10828;47.064;15.422;2022-11-15T10:56:53;49.37;;;15.83;;
21339;SDS011;10828;47.064;15.422;2022-11-15T10:59:24;53.73;;;14.30;;
21339;SDS011;10828;47.064;15.422;2022-11-15T11:01:50;45.67;;;14.63;;
21339;SDS011;10828;47.064;15.422;2022-11-15T11:04:18;52.03;;;14.70;;
21339;SDS011;10828;47.064;15.422;2022-11-15T11:06:54;36.73;;;12.50;;
21339;SDS011;10828;47.064;15.422;2022-11-15T11:09:36;45.60;;;13.83;;
21339;SDS011;10828;47.064;15.422;2022-11-15T11:14:40;50.60;;;15.80;;
21339;SDS011;10828;47.064;15.422;2022-11-15T11:30:43;52.67;;;14.80;;
21339;SDS011;10828;47.064;15.422;2022-11-15T11:35:56;51.93;;;15.97;;
21339;SDS011;10828;47.064;15.422;2022-11-15T11:54:52;47.13;;;13.60;;
21339;SDS011;10828;47.064;15.422;2022-11-15T12:00:09;51.10;;;15.00;;
21339;SDS011;10828;47.064;15.422;2022-11-15T12:02:39;41.47;;;14.47;;
21339;SDS011;10828;47.064;15.422;2022-11-15T12:05:12;45.87;;;14.53;;
21339;SDS011;10828;47.064;15.422;2022-11-15T12:07:45;45.80;;;14.47;;
21339;SDS011;10828;47.064;15.422;2022-11-15T12:10:16;34.90;;;12.70;;
21339;SDS011;10828;47.064;15.422;2022-11-15T12:15:33;40.83;;;12.27;;
21339;SDS011;10828;47.064;15.422;2022-11-15T12:18:01;41.20;;;12.33;;
21339;SDS011;10828;47.064;15.422;2022-11-15T12:20:28;49.73;;;13.93;;
21339;SDS011;10828;47.064;15.422;2022-11-15T12:23:03;40.27;;;13.30;;
21339;SDS011;10828;47.064;15.422;2022-11-15T12:30:44;35.43;;;12.47;;
21339;SDS011;10828;47.064;15.422;2022-11-15T12:33:31;48.47;;;14.33;;
21339;SDS011;10828;47.064;15.422;2022-11-15T12:36:11;46.60;;;12.13;;
21339;SDS011;10828;47.064;15.422;2022-11-15T12:41:43;38.27;;;12.77;;
21339;SDS011;10828;47.064;15.422;2022-11-15T13:02:18;30.20;;;11.10;;
21339;SDS011;10828;47.064;15.422;2022-11-15T13:04:44;32.77;;;10.90;;
21339;SDS011;10828;47.064;15.422;2022-11-15T13:07:54;38.73;;;10.93;;
21339;SDS011;10828;47.064;15.422;2022-11-15T13:09:56;43.37;;;11.90;;
21339;SDS011;10828;47.064;15.422;2022-11-15T13:15:01;37.10;;;11.43;;
21339;SDS011;10828;47.064;15.422;2022-11-15T13:17:29;40.13;;;12.80;;
21339;SDS011;10828;47.064;15.422;2022-11-15T13:20:09;31.83;;;11.37;;
21339;SDS011;10828;47.064;15.422;2022-11-15T13:22:44;35.43;;;10.93;;
21339;SDS011;10828;47.064;15.422;2022-11-15T13:30:51;35.30;;;11.47;;
21339;SDS011;10828;47.064;15.422;2022-11-15T13:33:27;32.87;;;11.63;;
21339;SDS011;10828;47.064;15.422;2022-11-15T13:35:58;30.77;;;10.63;;
21339;SDS011;10828;47.064;15.422;2022-11-15T13:38:34;33.07;;;10.13;;
21339;SDS011;10828;47.064;15.422;2022-11-15T13:41:25;30.70;;;11.43;;
21339;SDS011;10828;47.064;15.422;2022-11-15T13:43:52;33.33;;;10.50;;
21339;SDS011;10828;47.064;15.422;2022-11-15T13:46:20;37.67;;;11.57;;
21339;SDS011;10828;47.064;15.422;2022-11-15T13:48:53;42.97;;;11.50;;
21339;SDS011;10828;47.064;15.422;2022-11-15T13:54:26;36.97;;;11.33;;
21339;SDS011;10828;47.064;15.422;2022-11-15T13:57:00;38.57;;;11.37;;
21339;SDS011;10828;47.064;15.422;2022-11-15T13:59:29;38.27;;;13.63;;
21339;SDS011;10828;47.064;15.422;2022-11-15T14:01:59;34.33;;;11.73;;
21339;SDS011;10828;47.064;15.422;2022-11-15T14:04:27;37.80;;;11.57;;
21339;SDS011;10828;47.064;15.422;2022-11-15T14:06:59;34.40;;;11.57;;
21339;SDS011;10828;47.064;15.422;2022-11-15T14:09:36;31.17;;;12.00;;
21339;SDS011;10828;47.064;15.422;2022-11-15T14:14:49;33.17;;;10.97;;
21339;SDS011;10828;47.064;15.422;2022-11-15T14:19:47;35.33;;;10.67;;
21339;SDS011;10828;47.064;15.422;2022-11-15T14:24:45;30.00;;;10.90;;
21339;SDS011;10828;47.064;15.422;2022-11-15T14:27:25;33.13;;;11.00;;
21339;SDS011;10828;47.064;15.422;2022-11-15T14:29:53;40.17;;;11.77;;
21339;SDS011;10828;47.064;15.422;2022-11-15T14:34:49;24.90;;;9.07;;
21339;SDS011;10828;47.064;15.422;2022-11-15T14:37:23;28.67;;;9.73;;
21339;SDS011;10828;47.064;15.422;2022-11-15T14:39:50;23.80;;;9.30;;
21339;SDS011;10828;47.064;15.422;2022-11-15T14:42:23;24.13;;;8.37;;
21339;SDS011;10828;47.064;15.422;2022-11-15T14:44:50;38.10;;;12.07;;
21339;SDS011;10828;47.064;15.422;2022-11-15T14:47:19;29.33;;;9.33;;
21339;SDS011;10828;47.064;15.422;2022-11-15T14:49:45;28.63;;;10.30;;
21339;SDS011;10828;47.064;15.422;2022-11-15T14:52:28;28.30;;;9.80;;
21339;SDS011;10828;47.064;15.422;2022-11-15T14:54:55;30.20;;;10.53;;
21339;SDS011;10828;47.064;15.422;2022-11-15T14:57:24;28.80;;;10.13;;
21339;SDS011;10828;47.064;15.422;2022-11-15T14:59:50;28.73;;;9.53;;
21339;SDS011;10828;47.064;15.422;2022-11-15T15:02:19;27.20;;;9.23;;
21339;SDS011;10828;47.064;15.422;2022-11-15T15:04:46;21.93;;;9.30;;
21339;SDS011;10828;47.064;15.422;2022-11-15T15:07:12;30.20;;;9.70;;
21339;SDS011;10828;47.064;15.422;2022-11-15T15:09:39;28.23;;;11.07;;
21339;SDS011;10828;47.064;15.422;2022-11-15T15:12:19;41.63;;;10.63;;
21339;SDS011;10828;47.064;15.422;2022-11-15T15:36:46;27.93;;;10.07;;
21339;SDS011;10828;47.064;15.422;2022-11-15T15:39:13;31.37;;;9.63;;
21339;SDS011;10828;47.064;15.422;2022-11-15T15:41:40;23.37;;;8.60;;
21339;SDS011;10828;47.064;15.422;2022-11-15T15:44:06;28.53;;;9.17;;
21339;SDS011;10828;47.064;15.422;2022-11-15T15:46:36;29.33;;;9.13;;
21339;SDS011;10828;47.064;15.422;2022-11-15T15:49:11;33.87;;;10.10;;
21339;SDS011;10828;47.064;15.422;2022-11-15T15:51:38;26.27;;;9.43;;
21339;SDS011;10828;47.064;15.422;2022-11-15T15:54:06;28.57;;;9.43;;
21339;SDS011;10828;47.064;15.422;2022-11-15T15:59:05;21.27;;;8.93;;
21339;SDS011;10828;47.064;15.422;2022-11-15T16:01:31;31.40;;;9.73;;
21339;SDS011;10828;47.064;15.422;2022-11-15T16:03:57;25.53;;;9.67;;
21339;SDS011;10828;47.064;15.422;2022-11-15T16:06:32;31.27;;;9.83;;
21339;SDS011;10828;47.064;15.422;2022-11-15T16:08:59;24.07;;;8.67;;
21339;SDS011;10828;47.064;15.422;2022-11-15T16:11:25;22.10;;;8.87;;
21339;SDS011;10828;47.064;15.422;2022-11-15T16:13:55;25.87;;;8.20;;
21339;SDS011;10828;47.064;15.422;2022-11-15T16:16:27;28.00;;;9.30;;
21339;SDS011;10828;47.064;15.422;2022-11-15T16:18:54;22.97;;;8.17;;
21339;SDS011;10828;47.064;15.422;2022-11-15T16:21:20;25.53;;;9.50;;
21339;SDS011;10828;47.064;15.422;2022-11-15T16:23:46;26.60;;;9.63;;
21339;SDS011;10828;47.064;15.422;2022-11-15T16:28:52;25.23;;;9.57;;
21339;SDS011;10828;47.064;15.422;2022-11-15T16:31:18;24.53;;;9.50;;
21339;SDS011;10828;47.064;15.422;2022-11-15T16:33:47;29.10;;;9.23;;
21339;SDS011;10828;47.064;15.422;2022-11-15T16:36:23;29.00;;;9.20;;
21339;SDS011;10828;47.064;15.422;2022-11-15T16:38:51;28.30;;;9.30;;
21339;SDS011;10828;47.064;15.422;2022-11-15T16:41:19;23.33;;;8.77;;
21339;SDS011;10828;47.064;15.422;2022-11-15T16:43:47;31.97;;;10.47;;
21339;SDS011;10828;47.064;15.422;2022-11-15T16:46:18;30.03;;;10.07;;
21339;SDS011;10828;47.064;15.422;2022-11-15T16:48:47;26.27;;;8.97;;
21339;SDS011;10828;47.064;15.422;2022-11-15T16:51:19;24.10;;;9.27;;
21339;SDS011;10828;47.064;15.422;2022-11-15T16:53:47;29.17;;;9.67;;
21339;SDS011;10828;47.064;15.422;2022-11-15T16:56:24;25.87;;;8.67;;
21339;SDS011;10828;47.064;15.422;2022-11-15T16:58:52;27.60;;;9.67;;
21339;SDS011;10828;47.064;15.422;2022-11-15T17:01:26;31.57;;;9.67;;
21339;SDS011;10828;47.064;15.422;2022-11-15T17:03:52;24.47;;;9.90;;
21339;SDS011;10828;47.064;15.422;2022-11-15T17:06:19;28.03;;;9.57;;
21339;SDS011;10828;47.064;15.422;2022-11-15T17:08:46;29.20;;;10.20;;
21339;SDS011;10828;47.064;15.422;2022-11-15T17:11:13;36.43;;;10.83;;
21339;SDS011;10828;47.064;15.422;2022-11-15T17:13:40;36.57;;;10.40;;
21339;SDS011;10828;47.064;15.422;2022-11-15T17:16:11;32.63;;;10.57;;
21339;SDS011;10828;47.064;15.422;2022-11-15T17:18:39;24.53;;;9.63;;
21339;SDS011;10828;47.064;15.422;2022-11-15T17:21:09;26.97;;;9.63;;
21339;SDS011;10828;47.064;15.422;2022-11-15T17:23:38;30.60;;;8.83;;
21339;SDS011;10828;47.064;15.422;2022-11-15T17:26:05;37.63;;;12.33;;
21339;SDS011;10828;47.064;15.422;2022-11-15T17:28:34;37.17;;;10.33;;
21339;SDS011;10828;47.064;15.422;2022-11-15T17:31:04;25.63;;;9.77;;
21339;SDS011;10828;47.064;15.422;2022-11-15T17:33:35;30.43;;;10.00;;
21339;SDS011;10828;47.064;15.422;2022-11-15T17:36:03;26.50;;;9.87;;
21339;SDS011;10828;47.064;15.422;2022-11-15T17:41:06;34.77;;;10.23;;
21339;SDS011;10828;47.064;15.422;2022-11-15T17:43:38;30.20;;;10.27;;
21339;SDS011;10828;47.064;15.422;2022-11-15T17:46:07;34.57;;;11.63;;
21339;SDS011;10828;47.064;15.422;2022-11-15T17:48:41;29.70;;;10.27;;
21339;SDS011;10828;47.064;15.422;2022-11-15T17:51:10;29.60;;;10.03;;
21339;SDS011;10828;47.064;15.422;2022-11-15T17:53:38;30.57;;;10.90;;
21339;SDS011;10828;47.064;15.422;2022-11-15T17:56:13;29.23;;;10.00;;
21339;SDS011;10828;47.064;15.422;2022-11-15T17:58:40;30.27;;;9.67;;
21339;SDS011;10828;47.064;15.422;2022-11-15T18:01:08;27.07;;;10.80;;
21339;SDS011;10828;47.064;15.422;2022-11-15T18:06:16;30.27;;;9.00;;
21339;SDS011;10828;47.064;15.422;2022-11-15T18:08:46;29.90;;;9.73;;
21339;SDS011;10828;47.064;15.422;2022-11-15T18:11:26;28.93;;;9.37;;